createdAt,value
2023-01-17T00:02:13.873Z,94047.19
2023-01-17T00:04:59.799Z,94084.44
2023-01-17T00:07:47.552Z,94106.28
2023-01-17T00:10:17.800Z,94081.47
2023-01-17T00:12:49.423Z,94081.34
2023-01-17T00:15:22.621Z,94093.75
2023-01-17T00:17:52.582Z,94078.84
2023-01-17T00:20:40.126Z,94091.72
2023-01-17T00:23:30.482Z,94088.41
2023-01-17T00:26:05.120Z,94091.06
2023-01-17T00:28:34.443Z,94069.78
2023-01-17T00:31:01.515Z,94068.25
2023-01-17T00:33:28.678Z,94104.16
2023-01-17T00:35:57.301Z,94092.06
2023-01-17T00:38:27.061Z,94074.81
2023-01-17T00:40:54.152Z,94098.03
2023-01-17T00:43:48.386Z,94043.78
2023-01-17T00:46:34.123Z,94072.94
2023-01-17T00:49:19.708Z,94093.47
2023-01-17T00:52:05.189Z,94103.03
2023-01-17T00:54:52.248Z,94037.59
2023-01-17T00:57:37.594Z,94116.34
2023-01-17T01:00:24.837Z,94051.50
2023-01-17T01:03:10.232Z,94088.63
2023-01-17T01:05:56.327Z,94106.81
2023-01-17T01:08:44.070Z,94097.88
2023-01-17T01:11:32.503Z,94119.03
2023-01-17T01:14:18.768Z,94127.78
2023-01-17T01:17:05.030Z,94084.19
2023-01-17T01:19:50.433Z,94146.63
2023-01-17T01:22:35.802Z,94072.44
2023-01-17T01:25:21.541Z,94097.06
2023-01-17T01:28:08.438Z,94097.06
2023-01-17T01:30:53.901Z,94083.53
2023-01-17T01:33:20.699Z,94079.31
2023-01-17T01:35:51.008Z,94051.06
2023-01-17T01:38:19.975Z,94067.84
2023-01-17T01:40:49.953Z,94060.97
2023-01-17T01:43:21.244Z,94024.28
2023-01-17T01:45:54.566Z,94052.81
2023-01-17T01:48:36.498Z,94050.94
2023-01-17T01:51:09.010Z,94031.50
2023-01-17T01:53:41.977Z,94027.06
2023-01-17T01:56:13.853Z,94006.94
2023-01-17T01:58:47.016Z,93982.00
2023-01-17T02:01:15.968Z,94024.38
2023-01-17T02:03:44.634Z,94032.50
2023-01-17T02:06:32.407Z,94030.31
2023-01-17T02:09:04.568Z,94028.94
2023-01-17T02:11:33.619Z,94035.59
2023-01-17T02:14:03.119Z,93996.38
2023-01-17T02:16:45.498Z,93993.56
2023-01-17T02:19:39.035Z,94033.41
2023-01-17T02:22:31.222Z,94027.28
2023-01-17T02:25:43.714Z,94059.44
2023-01-17T02:28:28.799Z,94010.00
2023-01-17T02:31:05.455Z,94000.88
2023-01-17T02:33:40.776Z,94042.47
2023-01-17T02:36:16.536Z,93998.66
2023-01-17T02:38:53.509Z,93998.34
2023-01-17T02:41:26.209Z,94033.16
2023-01-17T02:43:55.156Z,94026.72
2023-01-17T02:46:24.753Z,94027.63
2023-01-17T02:48:53.277Z,93940.28
2023-01-17T02:51:39.679Z,94021.06
2023-01-17T02:54:38.113Z,93999.59
2023-01-17T02:57:24.320Z,93991.06
2023-01-17T03:00:01.172Z,93986.19
2023-01-17T03:02:39.598Z,93966.25
2023-01-17T03:05:12.621Z,93987.50
2023-01-17T03:07:44.851Z,94004.06
2023-01-17T03:10:16.557Z,93964.41
2023-01-17T03:12:45.178Z,93976.47
2023-01-17T03:15:15.631Z,93960.53
2023-01-17T03:17:48.892Z,93981.22
2023-01-17T03:20:17.620Z,93980.91
2023-01-17T03:22:45.712Z,93977.31
2023-01-17T03:25:13.643Z,93968.66
2023-01-17T03:27:42.463Z,93992.22
2023-01-17T03:30:11.514Z,93986.88
2023-01-17T03:32:39.489Z,93971.78
2023-01-17T03:35:10.259Z,93992.03
2023-01-17T03:37:38.143Z,93997.84
2023-01-17T03:40:07.305Z,93983.59
2023-01-17T03:42:35.268Z,93997.84
2023-01-17T03:45:03.229Z,93961.44
2023-01-17T03:47:31.207Z,93970.50
2023-01-17T03:49:59.274Z,94006.09
2023-01-17T03:52:28.855Z,93989.47
2023-01-17T03:54:56.731Z,93990.34
2023-01-17T03:57:24.907Z,93980.78
2023-01-17T03:59:53.043Z,93991.94
2023-01-17T04:02:21.093Z,93982.81
2023-01-17T04:04:49.064Z,93990.16
2023-01-17T04:07:17.094Z,93985.28
2023-01-17T04:09:46.334Z,93953.06
2023-01-17T04:12:16.753Z,93968.88
2023-01-17T04:14:44.927Z,93992.56
2023-01-17T04:17:14.376Z,93992.19
2023-01-17T04:19:42.408Z,93994.00
2023-01-17T04:22:10.321Z,94042.41
2023-01-17T04:24:38.308Z,94010.03
2023-01-17T04:27:07.819Z,94046.66
2023-01-17T04:29:35.789Z,94043.53
2023-01-17T04:32:03.787Z,94045.06
2023-01-17T04:34:32.446Z,94008.31
2023-01-17T04:37:00.388Z,93993.47
2023-01-17T04:39:28.375Z,94022.94
2023-01-17T04:41:56.248Z,94019.28
2023-01-17T04:44:25.597Z,94014.38
2023-01-17T04:46:53.564Z,94012.50
2023-01-17T04:49:21.693Z,94034.91
2023-01-17T04:51:49.550Z,94048.19
2023-01-17T04:54:17.733Z,94064.66
2023-01-17T04:56:45.838Z,94019.22
2023-01-17T04:59:13.821Z,94014.31
2023-01-17T05:01:43.147Z,94022.78
2023-01-17T05:04:11.133Z,94036.16
2023-01-17T05:06:39.731Z,94065.13
2023-01-17T05:09:08.064Z,94043.28
2023-01-17T05:11:39.054Z,94054.22
2023-01-17T05:14:12.285Z,94074.50
2023-01-17T05:16:40.225Z,94055.34
2023-01-17T05:19:09.521Z,94043.56
2023-01-17T05:21:37.472Z,94043.47
2023-01-17T05:24:05.943Z,94067.09
2023-01-17T05:26:33.856Z,94094.22
2023-01-17T05:29:01.796Z,94031.13
2023-01-17T05:31:30.045Z,94054.09
2023-01-17T05:33:57.918Z,94046.06
2023-01-17T05:36:27.255Z,94054.22
2023-01-17T05:38:55.187Z,94048.09
2023-01-17T05:41:23.329Z,94048.09
2023-01-17T05:43:51.186Z,94048.09
2023-01-17T05:46:19.188Z,94007.97
2023-01-17T05:48:47.314Z,94031.13
2023-01-17T05:51:15.284Z,94017.88
2023-01-17T05:53:44.678Z,94019.97
2023-01-17T05:56:12.718Z,94019.16
2023-01-17T05:58:40.838Z,93999.69
2023-01-17T06:01:08.942Z,94010.28
2023-01-17T06:03:36.834Z,93971.66
2023-01-17T06:06:05.146Z,93993.16
2023-01-17T06:08:33.129Z,94010.72
2023-01-17T06:11:02.531Z,93950.47
2023-01-17T06:13:30.541Z,93966.28
2023-01-17T06:16:02.874Z,93971.97
2023-01-17T06:18:32.127Z,93949.13
2023-01-17T06:21:00.070Z,93961.38
2023-01-17T06:23:28.344Z,93959.97
2023-01-17T06:25:56.689Z,93975.72
2023-01-17T06:28:26.014Z,93966.66
2023-01-17T06:30:54.261Z,93991.75
2023-01-17T06:33:22.259Z,93981.59
2023-01-17T06:35:50.725Z,94012.28
2023-01-17T06:38:18.746Z,93963.34
2023-01-17T06:40:46.776Z,94019.81
2023-01-17T06:43:14.783Z,94002.81
2023-01-17T06:45:44.127Z,94027.28
2023-01-17T06:48:12.114Z,94037.78
2023-01-17T06:50:40.069Z,94020.34
2023-01-17T06:53:10.659Z,93979.19
2023-01-17T06:55:40.398Z,94013.16
2023-01-17T06:58:10.107Z,94011.88
2023-01-17T07:00:40.565Z,94029.81
2023-01-17T07:03:18.870Z,94049.03
2023-01-17T07:05:46.995Z,94045.69
2023-01-17T07:08:17.048Z,94053.94
2023-01-17T07:10:45.711Z,93991.03
2023-01-17T07:13:14.252Z,93980.81
2023-01-17T07:15:42.340Z,94006.75
2023-01-17T07:18:11.689Z,93968.63
2023-01-17T07:20:39.655Z,93972.50
2023-01-17T07:23:07.637Z,94011.53
2023-01-17T07:25:35.631Z,94017.53
2023-01-17T07:28:03.573Z,94048.06
2023-01-17T07:30:31.641Z,94036.28
2023-01-17T07:32:59.902Z,93974.53
2023-01-17T07:35:29.762Z,94028.13
2023-01-17T07:37:57.735Z,94059.91
2023-01-17T07:40:27.301Z,93967.94
2023-01-17T07:43:02.208Z,93986.66
2023-01-17T07:45:30.375Z,93926.94
2023-01-17T07:48:00.342Z,94029.06
2023-01-17T07:50:30.024Z,94009.00
2023-01-17T07:52:58.117Z,94032.31
2023-01-17T07:55:26.173Z,94037.28
2023-01-17T07:57:54.219Z,94036.72
2023-01-17T08:00:26.256Z,94021.03
2023-01-17T08:02:57.828Z,93985.97
2023-01-17T08:05:25.943Z,94035.41
2023-01-17T08:07:57.018Z,94025.56
2023-01-17T08:10:25.258Z,94009.38
2023-01-17T08:12:53.282Z,94037.34
2023-01-17T08:15:27.245Z,94046.22
2023-01-17T08:17:55.642Z,94022.31
2023-01-17T08:20:25.071Z,94043.38
2023-01-17T08:22:57.613Z,94052.50
2023-01-17T08:25:26.839Z,94063.13
2023-01-17T08:27:58.997Z,93920.09
2023-01-17T08:30:27.797Z,94060.66
2023-01-17T08:32:56.164Z,94061.63
2023-01-17T08:35:24.633Z,94063.41
2023-01-17T08:37:57.618Z,94067.13
2023-01-17T08:40:26.198Z,94075.31
2023-01-17T08:42:58.017Z,94069.25
2023-01-17T08:45:26.415Z,94076.13
2023-01-17T08:47:54.955Z,94084.34
2023-01-17T08:50:24.426Z,94084.16
2023-01-17T08:52:53.450Z,94080.56
2023-01-17T08:55:22.819Z,94078.81
2023-01-17T08:57:51.047Z,94067.94
2023-01-17T09:00:20.063Z,94033.00
2023-01-17T09:02:48.067Z,94071.94
2023-01-17T09:05:16.179Z,94067.16
2023-01-17T09:07:44.209Z,94057.84
2023-01-17T09:10:12.837Z,94061.16
2023-01-17T09:12:42.173Z,94029.38
2023-01-17T09:15:14.674Z,94063.59
2023-01-17T09:17:44.032Z,94061.28
2023-01-17T09:20:13.105Z,94027.44
2023-01-17T09:22:41.127Z,94047.59
2023-01-17T09:25:09.949Z,94045.19
2023-01-17T09:27:39.436Z,94028.25
2023-01-17T09:30:10.645Z,94030.97
2023-01-17T09:32:41.232Z,94047.59
2023-01-17T09:35:10.120Z,94052.28
2023-01-17T09:37:38.002Z,94034.88
2023-01-17T09:40:07.197Z,94027.09
2023-01-17T09:42:43.560Z,94008.34
2023-01-17T09:45:18.303Z,94014.09
2023-01-17T09:47:48.742Z,94002.09
2023-01-17T09:50:30.928Z,93982.28
2023-01-17T09:53:02.319Z,94015.28
2023-01-17T09:55:38.270Z,94017.56
2023-01-17T09:58:11.649Z,94026.03
2023-01-17T10:01:01.290Z,94040.72
2023-01-17T10:03:41.448Z,94035.38
2023-01-17T10:06:30.053Z,94049.69
2023-01-17T10:09:11.990Z,94002.00
2023-01-17T10:11:55.944Z,94040.81
2023-01-17T10:14:47.664Z,94031.59
2023-01-17T10:17:32.813Z,94025.31
2023-01-17T10:20:25.836Z,94027.72
2023-01-17T10:23:08.987Z,94045.63
2023-01-17T10:25:45.126Z,94042.53
2023-01-17T10:28:19.452Z,94035.69
2023-01-17T10:30:51.086Z,94033.41
2023-01-17T10:33:23.564Z,94000.03
2023-01-17T10:36:04.253Z,94029.84
2023-01-17T10:38:34.929Z,94033.69
2023-01-17T10:41:09.249Z,94051.81
2023-01-17T10:43:47.545Z,94023.31
2023-01-17T10:46:20.694Z,94022.97
2023-01-17T10:48:54.011Z,94016.44
2023-01-17T10:51:44.385Z,94010.66
2023-01-17T10:54:27.640Z,94000.16
2023-01-17T10:56:55.867Z,94003.28
2023-01-17T10:59:30.029Z,93993.19
2023-01-17T11:01:58.602Z,93992.06
2023-01-17T11:04:38.929Z,94009.88
2023-01-17T11:07:16.200Z,94001.34
2023-01-17T11:09:46.678Z,94001.38
2023-01-17T11:12:25.811Z,93981.69
2023-01-17T11:15:17.893Z,93970.09
2023-01-17T11:17:52.984Z,93973.22
2023-01-17T11:20:28.269Z,93956.94
2023-01-17T11:23:07.696Z,93967.00
2023-01-17T11:25:36.272Z,93924.00
2023-01-17T11:28:06.794Z,93949.19
2023-01-17T11:30:35.146Z,93959.28
2023-01-17T11:33:06.284Z,93924.03
2023-01-17T11:35:37.187Z,93845.03
2023-01-17T11:38:07.993Z,93916.31
2023-01-17T11:40:40.725Z,93895.41
2023-01-17T11:43:25.346Z,93925.22
2023-01-17T11:46:07.899Z,93890.72
2023-01-17T11:48:38.824Z,93922.13
2023-01-17T11:51:21.149Z,93933.75
2023-01-17T11:53:49.777Z,93884.91
2023-01-17T11:56:30.823Z,93871.31
2023-01-17T11:59:31.566Z,93874.81
2023-01-17T12:02:34.836Z,93885.69
2023-01-17T12:05:24.351Z,93884.09
2023-01-17T12:08:02.078Z,93873.25
2023-01-17T12:10:34.932Z,93882.16
2023-01-17T12:13:28.981Z,93865.06
2023-01-17T12:16:25.436Z,93860.03
2023-01-17T12:19:05.225Z,93873.25
2023-01-17T12:21:43.310Z,93860.06
2023-01-17T12:24:32.005Z,93850.78
2023-01-17T12:27:08.655Z,93841.47
2023-01-17T12:29:48.087Z,93841.50
2023-01-17T12:32:38.312Z,93855.03
2023-01-17T12:35:16.173Z,93853.09
2023-01-17T12:37:46.310Z,93845.28
2023-01-17T12:40:24.250Z,93858.41
2023-01-17T12:42:57.492Z,93828.94
2023-01-17T12:45:32.132Z,93860.66
2023-01-17T12:48:06.473Z,93856.81
2023-01-17T12:50:39.708Z,93844.78
2023-01-17T12:53:18.628Z,93838.19
2023-01-17T12:55:53.928Z,93843.53
2023-01-17T12:58:24.982Z,93836.94
2023-01-17T13:01:00.107Z,93828.00
2023-01-17T13:03:38.088Z,93837.38
2023-01-17T13:06:08.490Z,93852.16
2023-01-17T13:08:42.048Z,93852.19
2023-01-17T13:11:18.236Z,93845.19
2023-01-17T13:13:47.394Z,93842.94
2023-01-17T13:16:19.530Z,93853.78
2023-01-17T13:18:49.237Z,93829.03
2023-01-17T13:21:32.977Z,93862.72
2023-01-17T13:24:22.734Z,93850.69
2023-01-17T13:27:31.779Z,93842.59
2023-01-17T13:30:18.822Z,93849.97
2023-01-17T13:33:22.522Z,93874.75
2023-01-17T13:36:00.761Z,93860.78
2023-01-17T13:38:58.252Z,93834.09
2023-01-17T13:41:38.338Z,93860.84
2023-01-17T13:44:24.730Z,93856.19
2023-01-17T13:47:02.321Z,93853.91
2023-01-17T13:49:36.563Z,93850.78
2023-01-17T13:52:11.019Z,93852.72
2023-01-17T13:54:47.378Z,93862.03
2023-01-17T13:57:36.136Z,93840.72
2023-01-17T14:00:50.869Z,93879.09
2023-01-17T14:03:52.238Z,93877.53
2023-01-17T14:06:35.750Z,93843.06
2023-01-17T14:09:06.793Z,93863.97
2023-01-17T14:11:36.553Z,93859.25
2023-01-17T14:14:41.630Z,93853.78
2023-01-17T14:17:53.134Z,93872.38
2023-01-17T14:20:38.413Z,93873.19
2023-01-17T14:23:24.789Z,93855.81
2023-01-17T14:25:53.908Z,93829.13
2023-01-17T14:28:30.454Z,93853.88
2023-01-17T14:31:01.028Z,93839.50
2023-01-17T14:33:31.399Z,93861.59
2023-01-17T14:36:02.311Z,93824.72
2023-01-17T14:38:33.683Z,93849.94
2023-01-17T14:41:07.541Z,93788.63
2023-01-17T14:43:37.433Z,93824.94
2023-01-17T14:46:08.459Z,93846.34
2023-01-17T14:48:41.418Z,93834.75
2023-01-17T14:51:14.717Z,93847.91
2023-01-17T14:53:54.450Z,93774.88
2023-01-17T14:56:23.975Z,93847.66
2023-01-17T14:59:06.997Z,93857.72
2023-01-17T15:01:36.396Z,93849.97
2023-01-17T15:04:04.554Z,93872.50
2023-01-17T15:06:38.722Z,93867.81
2023-01-17T15:09:19.373Z,93875.56
2023-01-17T15:11:52.311Z,93872.03
2023-01-17T15:14:24.697Z,93863.91
2023-01-17T15:16:52.922Z,93859.31
2023-01-17T15:19:21.907Z,93867.09
2023-01-17T15:21:53.020Z,93877.88
2023-01-17T15:24:25.517Z,93885.72
2023-01-17T15:26:54.572Z,93885.94
2023-01-17T15:29:27.049Z,93855.94
2023-01-17T15:31:58.224Z,93869.94
2023-01-17T15:34:31.152Z,93869.41
2023-01-17T15:37:01.423Z,93836.63
2023-01-17T15:39:33.440Z,93888.72
2023-01-17T15:42:05.226Z,93884.13
2023-01-17T15:44:47.653Z,93889.16
2023-01-17T15:47:31.911Z,93888.78
2023-01-17T15:50:00.825Z,93854.69
2023-01-17T15:52:29.402Z,93895.78
2023-01-17T15:55:13.924Z,93906.63
2023-01-17T15:57:44.156Z,93897.31
2023-01-17T16:00:24.127Z,93901.97
2023-01-17T16:02:55.571Z,93886.06
2023-01-17T16:05:38.733Z,93896.53
2023-01-17T16:08:32.691Z,93899.59
2023-01-17T16:11:03.831Z,93894.94
2023-01-17T16:13:33.757Z,93858.56
2023-01-17T16:16:16.975Z,93880.91
2023-01-17T16:18:46.976Z,93880.91
2023-01-17T16:21:24.069Z,93887.94
2023-01-17T16:23:55.831Z,93903.19
2023-01-17T16:26:25.501Z,93903.91
2023-01-17T16:28:53.522Z,93914.50
2023-01-17T16:31:22.459Z,93905.56
2023-01-17T16:33:51.624Z,93898.28
2023-01-17T16:36:23.130Z,93893.88
2023-01-17T16:38:55.791Z,93904.44
2023-01-17T16:41:28.105Z,93907.53
2023-01-17T16:44:01.813Z,93910.53
2023-01-17T16:46:31.008Z,93899.84
2023-01-17T16:49:03.031Z,93888.66
2023-01-17T16:51:31.498Z,93852.00
2023-01-17T16:54:00.708Z,93864.38
2023-01-17T16:56:30.029Z,93872.84
2023-01-17T16:58:58.024Z,93870.97
2023-01-17T17:01:26.121Z,93859.81
2023-01-17T17:03:54.332Z,93871.88
2023-01-17T17:06:22.953Z,93859.63
2023-01-17T17:08:52.448Z,93882.09
2023-01-17T17:11:24.615Z,93874.00
2023-01-17T17:13:56.848Z,93853.19
2023-01-17T17:16:27.977Z,93852.41
2023-01-17T17:18:58.285Z,93871.66
2023-01-17T17:21:27.593Z,93830.47
2023-01-17T17:23:58.195Z,93787.69
2023-01-17T17:26:29.059Z,93873.19
2023-01-17T17:29:01.979Z,93836.22
2023-01-17T17:31:32.962Z,93828.50
2023-01-17T17:34:02.933Z,93716.09
2023-01-17T17:36:31.609Z,93783.47
2023-01-17T17:39:02.996Z,93838.03
2023-01-17T17:41:33.033Z,93842.16
2023-01-17T17:44:04.236Z,93755.41
2023-01-17T17:46:33.737Z,93822.13
2023-01-17T17:49:02.870Z,93811.56
2023-01-17T17:51:32.347Z,93823.91
2023-01-17T17:54:03.555Z,93813.56
2023-01-17T17:56:34.310Z,93809.31
2023-01-17T17:59:05.316Z,93790.03
2023-01-17T18:01:33.706Z,93786.47
2023-01-17T18:04:03.438Z,93770.63
2023-01-17T18:06:31.475Z,93766.28
2023-01-17T18:08:59.782Z,93777.00
2023-01-17T18:11:29.108Z,93763.13
2023-01-17T18:14:01.887Z,93748.78
2023-01-17T18:16:35.521Z,93756.88
2023-01-17T18:19:05.055Z,93759.97
2023-01-17T18:21:37.224Z,93761.66
2023-01-17T18:24:08.807Z,93771.38
2023-01-17T18:26:38.552Z,93764.06
2023-01-17T18:29:11.080Z,93725.59
2023-01-17T18:31:42.765Z,93760.22
2023-01-17T18:34:23.213Z,93781.00
2023-01-17T18:36:52.146Z,93782.13
2023-01-17T18:39:21.795Z,93757.81
2023-01-17T18:41:50.173Z,93784.03
2023-01-17T18:44:20.898Z,93764.63
2023-01-17T18:46:51.270Z,93769.69
2023-01-17T18:49:19.585Z,93755.81
2023-01-17T18:51:51.586Z,93744.25
2023-01-17T18:54:21.218Z,93743.88
2023-01-17T18:56:49.510Z,93756.22
2023-01-17T18:59:18.648Z,93760.50
2023-01-17T19:01:47.408Z,93759.69
2023-01-17T19:04:17.923Z,93760.78
2023-01-17T19:06:47.925Z,93759.25
2023-01-17T19:09:16.989Z,93729.78
2023-01-17T19:11:45.635Z,93692.91
2023-01-17T19:14:14.596Z,93753.91
2023-01-17T19:16:43.157Z,93772.91
2023-01-17T19:19:14.129Z,93788.88
2023-01-17T19:21:43.752Z,93768.63
2023-01-17T19:24:13.437Z,93759.06
2023-01-17T19:26:41.953Z,93740.09
2023-01-17T19:29:10.294Z,93753.97
2023-01-17T19:31:43.281Z,93752.47
2023-01-17T19:34:13.772Z,93698.41
2023-01-17T19:36:43.641Z,93747.25
2023-01-17T19:39:11.845Z,93782.69
2023-01-17T19:41:44.661Z,93763.13
2023-01-17T19:44:14.872Z,93711.97
2023-01-17T19:46:44.143Z,93758.00
2023-01-17T19:49:12.224Z,93758.03
2023-01-17T19:51:40.579Z,93751.09
2023-01-17T19:54:09.998Z,93746.16
2023-01-17T19:56:38.112Z,93630.03
2023-01-17T19:59:06.185Z,93774.81
2023-01-17T20:01:36.035Z,93697.38
2023-01-17T20:04:05.753Z,93756.69
2023-01-17T20:06:37.101Z,93690.44
2023-01-17T20:09:06.798Z,93746.97
2023-01-17T20:11:36.377Z,93756.19
2023-01-17T20:14:05.680Z,93721.72
2023-01-17T20:16:35.947Z,93748.16
2023-01-17T20:19:03.977Z,93732.13
2023-01-17T20:21:33.192Z,93602.84
2023-01-17T20:24:04.327Z,93718.09
2023-01-17T20:26:36.045Z,93736.72
2023-01-17T20:29:10.506Z,93742.91
2023-01-17T20:31:39.209Z,93746.06
2023-01-17T20:34:10.042Z,93699.66
2023-01-17T20:36:40.444Z,93705.53
2023-01-17T20:39:11.133Z,93686.53
2023-01-17T20:41:41.108Z,93738.41
2023-01-17T20:44:12.166Z,93737.28
2023-01-17T20:46:42.065Z,93734.19
2023-01-17T20:49:18.885Z,93701.28
2023-01-17T20:51:48.548Z,93719.84
2023-01-17T20:54:18.589Z,93709.00
2023-01-17T20:56:47.966Z,93721.44
2023-01-17T20:59:19.593Z,93758.91
2023-01-17T21:01:48.131Z,93751.16
2023-01-17T21:04:18.022Z,93715.22
2023-01-17T21:06:46.016Z,93712.53
2023-01-17T21:09:17.370Z,93732.25
2023-01-17T21:11:45.396Z,93717.94
2023-01-17T21:14:13.284Z,93712.94
2023-01-17T21:16:42.695Z,93703.66
2023-01-17T21:19:14.982Z,93708.69
2023-01-17T21:21:42.973Z,93710.63
2023-01-17T21:24:16.763Z,93729.91
2023-01-17T21:26:46.020Z,93726.81
2023-01-17T21:29:20.434Z,93707.50
2023-01-17T21:31:50.078Z,93659.53
2023-01-17T21:34:20.810Z,93719.16
2023-01-17T21:36:51.868Z,93682.00
2023-01-17T21:39:20.297Z,93723.41
2023-01-17T21:41:50.900Z,93707.19
2023-01-17T21:44:20.737Z,93713.41
2023-01-17T21:46:54.186Z,93686.72
2023-01-17T21:49:23.574Z,93707.19
2023-01-17T21:52:08.742Z,93707.19
2023-01-17T21:54:56.178Z,93709.09
2023-01-17T21:57:42.143Z,93718.41
2023-01-17T22:00:14.593Z,93717.63
2023-01-17T22:02:44.471Z,93688.25
2023-01-17T22:05:16.421Z,93717.28
2023-01-17T22:08:07.394Z,93723.06
2023-01-17T22:10:45.863Z,93715.31
2023-01-17T22:13:16.121Z,93702.91
2023-01-17T22:15:45.437Z,93692.13
2023-01-17T22:18:16.334Z,93697.53
2023-01-17T22:20:44.506Z,93704.91
2023-01-17T22:23:12.640Z,93701.84
2023-01-17T22:25:40.697Z,93697.59
2023-01-17T22:28:10.993Z,93686.38
2023-01-17T22:30:39.337Z,93711.47
2023-01-17T22:33:07.388Z,93719.19
2023-01-17T22:35:39.214Z,93717.31
2023-01-17T22:38:07.195Z,93706.88
2023-01-17T22:40:38.270Z,93718.44
2023-01-17T22:43:06.416Z,93710.28
2023-01-17T22:45:34.464Z,93719.97
2023-01-17T22:48:02.427Z,93717.66
2023-01-17T22:50:30.332Z,93706.78
2023-01-17T22:52:59.846Z,93685.06
2023-01-17T22:55:27.791Z,93671.16
2023-01-17T22:57:55.824Z,93689.72
2023-01-17T23:00:23.801Z,93707.56
2023-01-17T23:02:51.807Z,93696.75
2023-01-17T23:05:20.513Z,93694.44
2023-01-17T23:07:56.291Z,93717.69
2023-01-17T23:10:43.547Z,93707.97
2023-01-17T23:13:11.450Z,93704.47
2023-01-17T23:15:57.229Z,93705.19
2023-01-17T23:18:42.786Z,93709.06
2023-01-17T23:21:10.695Z,93701.28
2023-01-17T23:23:41.294Z,93663.75
2023-01-17T23:26:10.895Z,93669.91
2023-01-17T23:28:38.234Z,93647.78
2023-01-17T23:31:09.114Z,93670.56
2023-01-17T23:33:38.215Z,93652.78
2023-01-17T23:36:09.353Z,93638.09
2023-01-17T23:38:40.679Z,93662.34
2023-01-17T23:41:42.053Z,93621.44
2023-01-17T23:44:09.977Z,93671.22
2023-01-17T23:46:38.004Z,93658.03
2023-01-17T23:49:06.022Z,93663.44
2023-01-17T23:51:33.986Z,93662.28
2023-01-17T23:54:05.491Z,93654.53
2023-01-17T23:56:34.934Z,93663.91
2023-01-17T23:59:04.514Z,93663.13
